Time;durP1;ratioP1;P1;durP2;ratioP2;P2;SDS_P1;SDS_P2;PMS_P1;PMS_P2;Temp;Humidity;BMP_temperature;BMP_pressure;BME280_temperature;BME280_humidity;BME280_pressure;Samples;Min_cycle;Max_cycle;Signal;HPM_P1;HPM_P2
2022/05/27 00:00:49;;;;;;;6.28;3.80;;;;;;;16.00;55.74;100508.95;1734252;82;21056;-67
2022/05/27 00:03:16;;;;;;;6.03;3.72;;;;;;;15.98;55.84;100508.30;1733851;82;21487;-68
2022/05/27 00:05:42;;;;;;;12.13;4.17;;;;;;;15.98;55.95;100508.30;1734202;82;21492;-67
2022/05/27 00:08:09;;;;;;;6.95;3.98;;;;;;;15.97;56.04;100503.97;1734296;82;21027;-68
2022/05/27 00:10:35;;;;;;;5.90;3.58;;;;;;;15.95;56.16;100504.67;1734167;82;21035;-68
2022/05/27 00:13:02;;;;;;;6.35;4.33;;;;;;;15.94;56.24;100497.11;1734313;82;20949;-68
2022/05/27 00:15:28;;;;;;;4.78;3.95;;;;;;;15.93;56.35;100493.30;1734149;82;21544;-68
2022/05/27 00:17:54;;;;;;;7.15;4.05;;;;;;;15.92;56.43;100486.25;1734256;82;21548;-68
2022/05/27 00:20:21;;;;;;;6.58;4.50;;;;;;;15.90;56.53;100480.27;1734237;82;21469;-68
2022/05/27 00:22:47;;;;;;;8.73;4.50;;;;;;;15.89;56.69;100479.42;1734283;82;21025;-68
2022/05/27 00:25:13;;;;;;;4.70;3.83;;;;;;;15.88;56.81;100476.41;1734254;82;21060;-68
2022/05/27 00:27:40;;;;;;;11.97;4.35;;;;;;;15.88;56.94;100464.83;1733919;82;21028;-68
2022/05/27 00:30:09;;;;;;;7.20;4.22;;;;;;;15.87;57.01;100467.19;1734272;82;21066;-68
2022/05/27 00:32:39;;;;;;;8.73;4.28;;;;;;;15.87;57.13;100459.12;1734345;82;21035;-68
2022/05/27 00:35:06;;;;;;;6.00;3.70;;;;;;;15.85;57.24;100451.78;1734225;82;21032;-68
2022/05/27 00:37:32;;;;;;;6.50;4.28;;;;;;;15.86;57.37;100449.42;1734064;82;21008;-68
2022/05/27 00:39:58;;;;;;;3.98;3.22;;;;;;;15.85;57.45;100449.92;1734442;82;21952;-68
2022/05/27 00:42:24;;;;;;;8.78;4.10;;;;;;;15.85;57.55;100443.72;1734138;82;21011;-68
2022/05/27 00:44:50;;;;;;;5.75;3.83;;;;;;;15.84;57.68;100440.20;1734378;82;21095;-67
2022/05/27 00:47:19;;;;;;;5.67;3.70;;;;;;;15.84;57.78;100442.88;1734394;82;21061;-68
2022/05/27 00:49:54;;;;;;;5.58;4.12;;;;;;;15.83;57.91;100434.49;1733763;82;21092;-68
2022/05/27 00:52:22;;;;;;;5.72;3.90;;;;;;;15.83;58.01;100432.34;1734282;82;21099;-68
2022/05/27 00:54:48;;;;;;;6.72;3.83;;;;;;;15.83;58.16;100433.15;1734235;82;21047;-68
2022/05/27 00:57:18;;;;;;;6.95;3.77;;;;;;;15.85;58.28;100424.38;1734333;82;20980;-68
2022/05/27 00:59:53;;;;;;;;;;;;;;;15.85;58.38;100422.20;1736958;82;21099;-68
2022/05/27 01:02:19;;;;;;;4.45;3.52;;;;;;;15.85;58.46;100417.66;1734180;82;20187;-68
2022/05/27 01:04:45;;;;;;;8.23;3.58;;;;;;;15.88;58.56;100415.06;1734142;82;21133;-68
2022/05/27 01:07:11;;;;;;;7.90;3.70;;;;;;;15.88;58.63;100408.34;1734055;82;21012;-68
2022/05/27 01:09:39;;;;;;;6.80;3.52;;;;;;;15.90;58.69;100403.61;1734162;82;21106;-69
2022/05/27 01:12:25;;;;;;;5.85;4.33;;;;;;;15.89;58.78;100399.25;1734268;82;21024;-68
2022/05/27 01:15:16;;;;;;;5.92;3.42;;;;;;;15.89;58.85;100392.53;1734208;82;21019;-68
2022/05/27 01:18:06;;;;;;;8.80;3.92;;;;;;;15.91;58.92;100389.94;1734687;82;21139;-68
2022/05/27 01:21:04;;;;;;;4.92;2.92;;;;;;;15.93;58.97;100384.36;1733384;82;21080;-68
2022/05/27 01:23:57;;;;;;;7.37;3.27;;;;;;;15.94;59.03;100389.52;1734310;82;21000;-68
2022/05/27 01:26:53;;;;;;;5.15;2.95;;;;;;;15.96;59.09;100383.95;1733536;82;20989;-68
2022/05/27 01:29:59;;;;;;;4.95;3.22;;;;;;;15.97;59.13;100374.86;1734003;82;21099;-68
2022/05/27 01:32:37;;;;;;;5.80;2.95;;;;;;;15.99;59.17;100380.84;1734252;82;21853;-68
2022/05/27 01:35:23;;;;;;;5.33;2.80;;;;;;;15.99;59.20;100378.16;1734307;82;21010;-68
2022/05/27 01:38:16;;;;;;;5.22;3.67;;;;;;;15.99;59.25;100370.09;1733883;82;21039;-68
2022/05/27 01:41:04;;;;;;;7.45;3.02;;;;;;;16.02;59.28;100367.49;1734180;82;21004;-68
2022/05/27 01:43:51;;;;;;;4.85;3.25;;;;;;;16.02;59.32;100362.11;1734513;82;21043;-68
2022/05/27 01:46:25;;;;;;;4.62;3.08;;;;;;;16.04;59.35;100360.89;1734043;82;21519;-68
2022/05/27 01:49:17;;;;;;;7.62;3.42;;;;;;;16.07;59.38;100352.41;1732615;82;21052;-68
2022/05/27 01:51:57;;;;;;;5.90;3.22;;;;;;;16.10;59.42;100361.92;1734322;82;21071;-68
2022/05/27 01:54:49;;;;;;;8.00;3.10;;;;;;;16.09;59.44;100353.02;1734160;82;21013;-67
2022/05/27 01:57:33;;;;;;;6.33;2.80;;;;;;;16.11;59.44;100344.23;1733507;82;21074;-68
2022/05/27 02:00:11;;;;;;;6.67;2.87;;;;;;;16.14;59.49;100349.20;1706716;82;21103;-68
2022/05/27 02:02:42;;;;;;;8.48;3.05;;;;;;;16.14;59.50;100342.48;1733619;82;21072;-68
2022/05/27 02:05:16;;;;;;;5.25;2.72;;;;;;;16.15;59.52;100334.69;1736735;82;21060;-68
2022/05/27 02:07:47;;;;;;;6.25;2.87;;;;;;;16.17;59.51;100331.80;1736428;82;21024;-68
2022/05/27 02:10:21;;;;;;;5.50;3.00;;;;;;;16.16;59.50;100335.52;1738194;82;21070;-68
2022/05/27 02:12:54;;;;;;;5.15;2.70;;;;;;;16.15;59.53;100340.07;1699464;82;21073;-68
2022/05/27 02:15:32;;;;;;;4.87;2.70;;;;;;;16.14;59.55;100326.33;1737914;82;21012;-68
2022/05/27 02:18:06;;;;;;;5.47;2.50;;;;;;;16.16;59.54;100322.90;1738371;82;21505;-68
2022/05/27 02:20:41;;;;;;;5.28;2.90;;;;;;;16.18;59.58;100323.54;1738201;82;21047;-68
2022/05/27 02:23:30;;;;;;;3.45;2.42;;;;;;;16.19;59.58;100322.48;1711493;82;21027;-68
2022/05/27 02:25:57;;;;;;;8.30;2.98;;;;;;;16.18;59.58;100322.19;1738351;82;21075;-68
2022/05/27 02:28:32;;;;;;;7.70;3.12;;;;;;;16.17;59.60;100323.73;1738191;82;21489;-68
2022/05/27 02:31:02;;;;;;;4.55;2.72;;;;;;;16.15;59.63;100320.44;1738292;82;21075;-68
2022/05/27 02:36:24;;;;;;;3.05;2.25;;;;;;;16.14;59.71;100316.91;1738394;82;20544;-68
2022/05/27 02:38:50;;;;;;;4.47;2.72;;;;;;;16.14;59.73;100311.53;1738139;82;21110;-68
2022/05/27 02:41:28;;;;;;;7.67;2.67;;;;;;;16.17;59.78;100304.90;1738219;82;21099;-68
2022/05/27 02:44:17;;;;;;;5.62;2.67;;;;;;;16.21;59.78;100302.10;1738078;82;21021;-68
2022/05/27 02:47:11;;;;;;;5.47;2.70;;;;;;;16.21;59.76;100300.25;1738152;82;21015;-67
2022/05/27 02:49:49;;;;;;;4.90;2.12;;;;;;;16.19;59.76;100296.92;1738352;82;21020;-68
2022/05/27 02:52:54;;;;;;;6.05;2.55;;;;;;;16.20;59.78;100293.72;1738011;82;21480;-68
2022/05/27 02:55:57;;;;;;;4.45;2.40;;;;;;;16.22;59.77;100293.00;1738152;82;21044;-68
2022/05/27 02:58:23;;;;;;;4.25;2.15;;;;;;;16.21;59.79;100296.21;1737397;82;21039;-68
2022/05/27 03:00:49;;;;;;;5.28;2.70;;;;;;;16.23;59.76;100290.60;1738281;82;21031;-68
2022/05/27 03:03:15;;;;;;;7.20;2.70;;;;;;;16.26;59.75;100291.01;1738062;82;21023;-68
2022/05/27 03:05:55;;;;;;;9.33;2.67;;;;;;;16.28;59.73;100291.64;1738083;82;21091;-68
2022/05/27 03:08:43;;;;;;;;;;;;;;;16.30;59.72;100286.87;1740739;82;21067;-68
2022/05/27 03:11:21;;;;;;;5.80;2.17;;;;;;;16.34;59.70;100282.72;1741339;81;20168;-68
2022/05/27 03:13:56;;;;;;;6.78;2.25;;;;;;;16.37;59.64;100280.95;1736281;81;21552;-68
2022/05/27 03:16:51;;;;;;;5.85;2.70;;;;;;;16.39;59.60;100276.20;1737031;81;21043;-68
2022/05/27 03:19:44;;;;;;;5.05;2.50;;;;;;;16.38;59.59;100278.58;1733518;82;21946;-68
2022/05/27 03:22:40;;;;;;;7.40;2.72;;;;;;;16.38;59.57;100278.58;1732979;82;21018;-68
2022/05/27 03:25:44;;;;;;;3.72;2.00;;;;;;;16.38;59.54;100279.92;1689547;82;21570;-68
2022/05/27 03:28:42;;;;;;;4.12;2.35;;;;;;;16.38;59.53;100279.09;1733668;82;21472;-68
2022/05/27 03:31:31;;;;;;;4.15;2.20;;;;;;;16.37;59.52;100281.47;1712423;82;21003;-68
2022/05/27 03:34:26;;;;;;;5.10;1.90;;;;;;;16.36;59.54;100286.02;1706459;82;21821;-68
2022/05/27 03:37:08;;;;;;;4.72;1.95;;;;;;;16.32;59.62;100295.58;1766891;81;21520;-68
2022/05/27 03:40:04;;;;;;;5.55;2.45;;;;;;;16.24;59.74;100295.78;1767922;81;20983;-68
2022/05/27 03:42:30;;;;;;;10.43;2.60;;;;;;;16.19;59.94;100293.39;1767693;81;21035;-68
2022/05/27 03:45:12;;;;;;;6.90;2.30;;;;;;;16.19;60.05;100300.95;1768097;81;21012;-68
2022/05/27 03:47:40;;;;;;;4.67;2.42;;;;;;;16.17;60.21;100306.24;1767701;81;21668;-68
2022/05/27 03:50:07;;;;;;;8.05;2.30;;;;;;;16.12;60.39;100313.59;1767833;81;20989;-68
2022/05/27 03:52:41;;;;;;;4.17;2.05;;;;;;;16.08;60.57;100310.99;1767903;81;21452;-68
2022/05/27 03:55:09;;;;;;;10.23;2.65;;;;;;;16.05;60.76;100317.30;1767517;81;21054;-68
2022/05/27 03:57:35;;;;;;;8.40;2.40;;;;;;;16.07;61.03;100318.78;1767929;81;20965;-68
2022/05/27 04:00:02;;;;;;;9.25;3.40;;;;;;;16.03;61.24;100317.53;1767709;81;21412;-68
2022/05/27 04:02:28;;;;;;;7.58;2.55;;;;;;;15.98;61.46;100324.03;1767590;81;21059;-69
2022/05/27 04:04:54;;;;;;;4.10;2.87;;;;;;;15.91;61.64;100333.97;1766941;81;21058;-68
2022/05/27 04:07:20;;;;;;;5.45;2.85;;;;;;;15.85;61.85;100324.04;1728577;83;21097;-68
2022/05/27 04:09:46;;;;;;;6.12;3.30;;;;;;;15.77;62.07;100333.64;1728985;82;20935;-69
2022/05/27 04:12:13;;;;;;;4.90;3.55;;;;;;;15.72;62.22;100340.16;1729297;83;21461;-68
2022/05/27 04:14:38;;;;;;;8.90;3.80;;;;;;;15.65;62.38;100346.05;1729185;83;21010;-69
2022/05/27 04:19:49;;;;;;;6.95;4.28;;;;;;;15.45;62.71;100357.53;1729114;83;21006;-68
2022/05/27 04:22:14;;;;;;;5.30;4.20;;;;;;;15.28;63.02;100350.87;1729112;83;20868;-69
2022/05/27 04:24:40;;;;;;;8.10;4.25;;;;;;;15.11;63.28;100342.85;1729301;83;21151;-69
2022/05/27 04:27:11;;;;;;;10.58;4.33;;;;;;;14.95;63.60;100350.72;1729195;83;21109;-69
2022/05/27 04:29:41;;;;;;;7.55;4.70;;;;;;;14.78;63.96;100354.77;1729101;83;20980;-68
2022/05/27 04:32:08;;;;;;;8.73;4.30;;;;;;;14.65;64.31;100341.78;1729405;83;21033;-68
2022/05/27 04:34:34;;;;;;;7.85;4.28;;;;;;;14.50;64.81;100351.29;1729268;83;20999;-68
2022/05/27 04:37:00;;;;;;;8.38;4.28;;;;;;;14.37;65.24;100354.72;1729125;83;21111;-68
2022/05/27 04:39:27;;;;;;;9.43;4.35;;;;;;;14.29;65.65;100360.20;1729084;83;21054;-68
2022/05/27 04:41:53;;;;;;;6.45;3.95;;;;;;;14.22;66.06;100359.82;1729120;83;21014;-68
2022/05/27 04:44:19;;;;;;;5.95;3.92;;;;;;;14.13;66.55;100365.86;1729232;83;21047;-68
2022/05/27 04:46:45;;;;;;;5.53;3.70;;;;;;;14.05;66.98;100359.28;1729578;83;21088;-68
2022/05/27 04:49:50;;;;;;;4.47;4.08;;;;;;;13.97;67.68;100364.77;1729301;83;21974;-68
2022/05/27 04:51:40;;;;;;;5.87;4.25;;;;;;;13.92;68.06;100364.53;1724933;83;20995;-68
2022/05/27 04:54:07;;;;;;;5.33;3.62;;;;;;;13.84;68.73;100358.78;1728891;83;21003;-68
2022/05/27 04:56:33;;;;;;;3.90;3.50;;;;;;;13.81;69.42;100363.70;1729135;83;21034;-68
2022/05/27 04:58:59;;;;;;;5.78;4.08;;;;;;;13.75;69.88;100361.79;1729265;83;21026;-69
2022/05/27 05:01:25;;;;;;;5.03;4.08;;;;;;;13.70;70.36;100350.80;1729301;83;21016;-68
2022/05/27 05:03:51;;;;;;;4.40;3.98;;;;;;;13.69;70.81;100346.45;1728802;83;21010;-69
2022/05/27 05:06:17;;;;;;;6.90;4.37;;;;;;;13.63;71.12;100328.47;1740426;82;21016;-68
2022/05/27 05:08:43;;;;;;;6.80;3.83;;;;;;;13.67;71.44;100338.63;1744094;82;21031;-69
2022/05/27 05:11:10;;;;;;;7.75;5.08;;;;;;;13.66;71.73;100336.12;1744322;82;22079;-68
2022/05/27 05:13:36;;;;;;;6.30;4.35;;;;;;;13.68;72.04;100342.14;1744297;82;21717;-68
2022/05/27 05:16:03;;;;;;;5.05;4.30;;;;;;;13.64;72.62;100344.88;1744116;82;20991;-68
2022/05/27 05:18:29;;;;;;;7.35;4.97;;;;;;;13.64;72.62;100344.88;1744359;82;21063;-68
2022/05/27 05:20:56;;;;;;;7.30;5.92;;;;;;;13.61;73.46;100342.08;1744536;82;20972;-68
2022/05/27 05:23:22;;;;;;;5.67;5.10;;;;;;;13.61;73.46;100342.08;1744464;82;20960;-68
2022/05/27 05:25:48;;;;;;;8.90;5.97;;;;;;;13.63;73.51;100336.50;1744153;82;21137;-68
2022/05/27 05:28:14;;;;;;;8.68;6.95;;;;;;;13.62;73.71;100334.84;1744322;82;21051;-68
2022/05/27 05:30:40;;;;;;;9.38;7.50;;;;;;;13.67;73.91;100333.77;1744371;82;20987;-69
2022/05/27 05:33:06;;;;;;;9.98;8.80;;;;;;;13.68;74.13;100334.09;1744399;82;21099;-68
2022/05/27 05:35:34;;;;;;;9.98;7.50;;;;;;;13.71;74.30;100337.73;1744343;82;21004;-69
2022/05/27 05:38:00;;;;;;;8.30;6.90;;;;;;;13.73;74.49;100331.66;1744358;82;21095;-69
2022/05/27 05:40:26;;;;;;;8.28;6.75;;;;;;;13.66;74.65;100311.49;1744251;82;21153;-68
2022/05/27 05:42:52;;;;;;;8.58;6.15;;;;;;;13.81;74.83;100338.23;1744345;82;20980;-69
2022/05/27 05:45:19;;;;;;;6.37;5.30;;;;;;;13.82;75.07;100330.02;1744839;82;20991;-69
2022/05/27 05:47:45;;;;;;;8.05;5.15;;;;;;;13.83;75.25;100334.84;1744399;82;21063;-69
2022/05/27 05:50:12;;;;;;;6.50;5.28;;;;;;;13.80;75.51;100329.86;1744330;82;21161;-69
2022/05/27 05:52:39;;;;;;;8.05;5.62;;;;;;;13.80;75.66;100326.67;1744249;82;21536;-69
2022/05/27 05:55:06;;;;;;;6.60;5.30;;;;;;;13.80;75.91;100328.02;1743896;82;21008;-68
2022/05/27 05:57:32;;;;;;;12.45;5.87;;;;;;;13.81;75.97;100339.58;1744098;82;21091;-69
2022/05/27 05:59:59;;;;;;;7.97;5.15;;;;;;;13.68;76.22;100324.72;1716360;82;21039;-69
2022/05/27 06:02:25;;;;;;;6.15;4.53;;;;;;;13.79;76.32;100336.27;1744082;82;21118;-69
2022/05/27 06:04:51;;;;;;;6.10;5.45;;;;;;;13.82;76.42;100337.22;1744030;82;21039;-69
2022/05/27 06:07:17;;;;;;;6.45;4.50;;;;;;;13.86;76.54;100337.16;1735121;82;21066;-69
2022/05/27 06:09:43;;;;;;;6.65;5.65;;;;;;;13.90;76.67;100339.75;1733639;81;21011;-69
2022/05/27 06:12:09;;;;;;;8.00;5.62;;;;;;;13.92;76.75;100336.38;1735943;81;21508;-69
2022/05/27 06:14:36;;;;;;;5.95;5.35;;;;;;;13.95;76.92;100344.03;1704451;84;21577;-68
2022/05/27 06:17:03;;;;;;;6.45;5.30;;;;;;;13.98;77.01;100341.80;1735545;82;21040;-69
2022/05/27 06:19:29;;;;;;;6.03;4.80;;;;;;;14.03;77.12;100349.27;1735692;82;21012;-69
2022/05/27 06:21:55;;;;;;;6.45;4.83;;;;;;;14.05;77.21;100347.20;1735495;82;21068;-68
2022/05/27 06:24:21;;;;;;;10.63;6.55;;;;;;;14.05;77.32;100335.65;1731411;81;21090;-68
2022/05/27 06:26:47;;;;;;;5.78;5.10;;;;;;;14.05;77.44;100342.36;1732105;82;21123;-69
2022/05/27 06:34:42;;;;;;;6.17;4.42;;;;;;;13.98;77.68;100328.39;1732209;81;21493;-68
2022/05/27 06:37:14;;;;;;;6.37;4.75;;;;;;;14.02;77.77;100326.15;1732431;81;21037;-68
2022/05/27 06:39:40;;;;;;;4.67;4.28;;;;;;;14.05;77.85;100314.20;1730644;82;21558;-69
2022/05/27 06:42:08;;;;;;;7.45;4.67;;;;;;;14.07;77.90;100323.73;1733037;81;21006;-69
2022/05/27 06:44:36;;;;;;;7.92;4.17;;;;;;;14.12;78.00;100321.27;1732459;81;21499;-69
2022/05/27 06:47:03;;;;;;;6.58;4.37;;;;;;;14.16;78.07;100319.87;1732759;81;21020;-69
2022/05/27 06:49:29;;;;;;;4.90;3.75;;;;;;;14.23;78.16;100327.95;1735378;82;21495;-69
2022/05/27 06:51:55;;;;;;;4.70;4.03;;;;;;;14.23;78.22;100305.98;1732870;81;21880;-69
2022/05/27 06:54:22;;;;;;;7.30;4.72;;;;;;;14.23;78.29;100327.95;1733289;81;21019;-69
2022/05/27 06:56:50;;;;;;;5.20;4.08;;;;;;;14.20;78.33;100331.87;1731441;81;21054;-69
2022/05/27 06:59:16;;;;;;;4.65;3.25;;;;;;;14.18;78.37;100327.19;1730905;81;21484;-70
2022/05/27 07:01:43;;;;;;;6.67;3.67;;;;;;;14.18;78.37;100329.88;1743506;81;21044;-69
2022/05/27 07:04:09;;;;;;;4.55;3.70;;;;;;;14.15;78.40;100322.22;1731520;81;21067;-69
2022/05/27 07:06:44;;;;;;;4.70;3.75;;;;;;;14.18;78.43;100326.39;1715756;81;21022;-69
2022/05/27 07:09:12;;;;;;;4.00;3.45;;;;;;;14.23;78.45;100325.28;1736815;81;21131;-69
2022/05/27 07:11:39;;;;;;;5.70;4.12;;;;;;;14.26;78.46;100329.73;1709645;81;21023;-69
2022/05/27 07:14:05;;;;;;;9.13;4.40;;;;;;;14.31;78.47;100327.31;1736842;80;21420;-69
2022/05/27 07:16:31;;;;;;;4.87;3.40;;;;;;;14.36;78.48;100315.49;1734519;81;21120;-69
2022/05/27 07:18:57;;;;;;;8.58;4.10;;;;;;;14.42;78.46;100312.05;1739773;81;21041;-69
2022/05/27 07:21:24;;;;;;;5.37;3.75;;;;;;;14.42;78.45;100321.95;1738653;81;21078;-69
2022/05/27 07:23:54;;;;;;;4.20;3.80;;;;;;;14.38;78.44;100318.83;1738102;81;21493;-68
2022/05/27 07:26:21;;;;;;;9.80;5.28;;;;;;;14.38;78.48;100313.97;1746114;81;21082;-68
2022/05/27 07:28:48;;;;;;;4.75;4.25;;;;;;;14.39;78.48;100317.78;1742313;81;21152;-68
2022/05/27 07:31:14;;;;;;;5.05;3.80;;;;;;;14.44;78.48;100322.56;1772250;79;21071;-68
2022/05/27 07:33:41;;;;;;;5.30;4.20;;;;;;;14.49;78.47;100332.21;1778054;79;21083;-68
2022/05/27 07:36:07;;;;;;;5.15;4.00;;;;;;;14.54;78.48;100327.57;1789515;79;21518;-69
2022/05/27 07:38:33;;;;;;;5.03;3.77;;;;;;;14.54;78.43;100324.89;1770928;80;21066;-68
2022/05/27 07:40:59;;;;;;;6.22;4.17;;;;;;;14.53;78.42;100332.64;1765137;80;21168;-69
2022/05/27 07:43:25;;;;;;;6.40;4.37;;;;;;;14.47;78.42;100337.77;1748133;80;21074;-69
2022/05/27 07:45:51;;;;;;;7.30;4.58;;;;;;;14.49;78.42;100330.87;1749267;80;21098;-69
2022/05/27 07:48:17;;;;;;;5.35;4.00;;;;;;;14.49;78.41;100336.23;1737842;80;21527;-69
2022/05/27 07:50:43;;;;;;;5.62;4.33;;;;;;;14.50;78.38;100335.19;1730391;80;21529;-69
2022/05/27 07:53:09;;;;;;;5.45;4.03;;;;;;;14.54;78.40;100339.65;1740519;82;21812;-69
2022/05/27 07:55:36;;;;;;;6.45;4.47;;;;;;;14.59;78.37;100333.19;1740315;82;21000;-69
2022/05/27 07:58:02;;;;;;;6.72;4.58;;;;;;;14.59;78.34;100335.87;1740273;82;21306;-70
2022/05/27 08:00:31;;;;;;;4.95;4.25;;;;;;;14.57;78.35;100335.22;1708313;84;20934;-69
2022/05/27 08:02:57;;;;;;;6.85;4.30;;;;;;;14.59;78.33;100341.24;1738621;80;21071;-70
2022/05/27 08:05:27;;;;;;;7.00;5.45;;;;;;;14.49;78.32;100338.92;1738878;82;21187;-70
2022/05/27 08:07:54;;;;;;;7.33;4.80;;;;;;;14.41;78.33;100338.55;1733056;82;21043;-70
2022/05/27 08:10:23;;;;;;;6.72;4.37;;;;;;;14.41;78.34;100339.89;1733257;82;21498;-69
2022/05/27 08:12:49;;;;;;;5.65;4.25;;;;;;;14.37;78.35;100338.63;1743132;81;21039;-70
2022/05/27 08:15:16;;;;;;;6.78;4.85;;;;;;;14.36;78.33;100350.38;1733127;81;21070;-69
2022/05/27 08:17:42;;;;;;;8.48;4.15;;;;;;;14.33;78.37;100349.39;1729100;81;21119;-69
2022/05/27 08:20:11;;;;;;;4.60;2.70;;;;;;;14.28;78.40;100354.53;1743678;81;21438;-68
2022/05/27 08:22:37;;;;;;;4.17;2.70;;;;;;;14.25;78.41;100352.75;1761623;81;21371;-68
2022/05/27 08:25:04;;;;;;;6.30;3.02;;;;;;;14.13;78.39;100359.15;1746638;81;20918;-68
2022/05/27 08:27:30;;;;;;;5.70;3.25;;;;;;;14.06;78.35;100358.27;1719091;82;21036;-68
2022/05/27 08:29:56;;;;;;;4.97;3.95;;;;;;;13.99;78.30;100374.80;1725559;83;21157;-68
2022/05/27 08:32:22;;;;;;;6.33;3.90;;;;;;;13.96;78.27;100376.53;1698937;82;21039;-68
2022/05/27 08:40:34;;;;;;;3.75;1.72;;;;;;;13.61;78.15;100390.31;1734492;82;21062;-68
2022/05/27 08:43:26;;;;;;;2.65;1.55;;;;;;;13.39;78.08;100376.55;1741012;82;21476;-69
2022/05/27 08:46:01;;;;;;;2.55;1.35;;;;;;;13.20;78.00;100383.83;1704128;84;21030;-68
2022/05/27 08:48:29;;;;;;;1.30;1.20;;;;;;;12.94;77.86;100386.98;1718316;82;21027;-68
2022/05/27 08:51:00;;;;;;;2.10;1.52;;;;;;;12.94;77.86;100386.98;1703652;82;20981;-68
2022/05/27 08:53:39;;;;;;;3.95;1.52;;;;;;;12.77;77.58;100377.48;1734411;81;20986;-68
2022/05/27 09:01:45;;;;;;;4.00;1.62;;;;;;;12.56;77.15;100364.00;1734271;81;20978;-68
2022/05/27 09:04:29;;;;;;;3.08;1.60;;;;;;;12.50;77.21;100346.81;1734957;82;21153;-69
2022/05/27 09:06:59;;;;;;;3.15;1.60;;;;;;;12.50;77.18;100349.49;1739625;82;21604;-68
2022/05/27 09:09:27;;;;;;;4.08;1.67;;;;;;;12.55;77.13;100336.91;1706374;84;21843;-69
2022/05/27 09:12:11;;;;;;;2.67;2.35;;;;;;;12.63;77.10;100340.84;1708462;82;21038;-68
2022/05/27 09:14:42;;;;;;;7.28;4.72;;;;;;;12.72;77.07;100328.52;1695992;82;21011;-70
2022/05/27 09:17:13;;;;;;;6.70;3.37;;;;;;;12.85;77.05;100330.53;1706893;84;21081;-69
2022/05/27 09:20:04;;;;;;;4.15;2.33;;;;;;;12.95;77.07;100332.40;1713258;82;21046;-70
2022/05/27 09:22:55;;;;;;;6.37;2.75;;;;;;;13.06;77.05;100332.44;1742680;81;21081;-70
2022/05/27 09:25:58;;;;;;;7.35;2.87;;;;;;;13.16;77.04;100335.16;1767130;81;21445;-69
2022/05/27 09:28:58;;;;;;;10.30;3.87;;;;;;;13.35;77.01;100334.58;1767166;81;21083;-69
2022/05/27 09:31:39;;;;;;;4.47;2.25;;;;;;;13.49;77.02;100331.02;1761802;81;20979;-69
2022/05/27 09:34:08;;;;;;;4.30;2.00;;;;;;;13.47;77.07;100325.01;1743355;81;21629;-69
2022/05/27 09:36:38;;;;;;;5.78;2.33;;;;;;;13.47;77.07;100325.01;1722733;81;21856;-69
2022/05/27 09:39:10;;;;;;;3.35;2.02;;;;;;;13.49;76.94;100331.02;1708057;81;21537;-70
2022/05/27 09:41:55;;;;;;;3.17;1.90;;;;;;;13.51;76.95;100331.64;1736108;82;21062;-69
2022/05/27 09:44:38;;;;;;;3.52;1.65;;;;;;;13.57;76.92;100342.13;1735845;82;21003;-69
2022/05/27 09:47:04;;;;;;;4.15;1.95;;;;;;;13.59;76.87;100340.08;1733991;82;20968;-69
2022/05/27 09:49:31;;;;;;;2.15;1.42;;;;;;;13.51;76.81;100320.93;1734342;82;21869;-70
2022/05/27 09:51:58;;;;;;;5.53;1.47;;;;;;;13.61;76.78;100327.84;1732868;81;20977;-69
2022/05/27 09:54:34;;;;;;;5.70;2.30;;;;;;;13.55;76.73;100304.47;1705799;84;21058;-69
2022/05/27 09:57:04;;;;;;;2.80;2.20;;;;;;;13.67;76.80;100316.34;1719613;82;21044;-70
2022/05/27 09:59:43;;;;;;;2.83;1.80;;;;;;;13.87;76.79;100325.39;1730366;82;21044;-69
2022/05/27 10:02:35;;;;;;;4.30;1.45;;;;;;;14.04;76.80;100321.41;1734790;82;21166;-69
2022/05/27 10:05:17;;;;;;;3.47;1.62;;;;;;;14.32;76.73;100323.58;1704173;84;21017;-70
2022/05/27 10:07:53;;;;;;;2.17;1.57;;;;;;;14.46;76.68;100312.48;1730252;81;21067;-69
2022/05/27 10:10:31;;;;;;;4.92;1.70;;;;;;;14.54;76.60;100316.84;1678793;85;21035;-69
2022/05/27 10:13:00;;;;;;;2.33;1.60;;;;;;;14.63;76.58;100323.72;1734603;81;21138;-69
2022/05/27 10:15:35;;;;;;;;;;;;;;;14.82;76.59;100314.41;1740093;81;21043;-69
2022/05/27 10:18:22;;;;;;;3.15;1.80;;;;;;;15.08;76.56;100312.37;1734816;81;20189;-69
2022/05/27 10:20:58;;;;;;;3.37;1.70;;;;;;;15.22;76.36;100312.73;1703434;84;21026;-70
2022/05/27 10:23:28;;;;;;;7.03;1.82;;;;;;;15.25;76.19;100312.31;1735663;80;21432;-69
2022/05/27 10:25:54;;;;;;;;;;;;;;;15.21;76.01;100321.80;1742417;80;21513;-69
2022/05/27 10:28:27;;;;;;;2.75;1.98;;;;;;;15.15;75.92;100313.22;1742172;81;21024;-70
2022/05/27 10:31:00;;;;;;;5.62;2.20;;;;;;;15.12;75.74;100314.97;1761912;80;21471;-69
2022/05/27 10:33:40;;;;;;;4.90;1.80;;;;;;;15.19;75.66;100313.13;1768255;79;20998;-69
2022/05/27 10:36:51;;;;;;;4.47;1.95;;;;;;;15.32;75.53;100304.27;1766833;81;21031;-69
2022/05/27 10:39:29;;;;;;;3.47;1.70;;;;;;;15.74;75.50;100299.10;1766590;81;21063;-69
2022/05/27 10:42:15;;;;;;;2.52;1.80;;;;;;;16.09;75.12;100304.59;1777742;80;21520;-70
2022/05/27 10:45:11;;;;;;;5.40;2.37;;;;;;;16.11;74.72;100298.50;1763058;79;21317;-69
2022/05/27 10:48:11;;;;;;;4.58;2.37;;;;;;;16.07;74.50;100297.25;1748730;79;21181;-69
2022/05/27 10:51:05;;;;;;;4.35;2.27;;;;;;;16.25;74.39;100296.11;1766452;81;21019;-69
2022/05/27 10:53:54;;;;;;;5.90;2.22;;;;;;;16.33;73.93;100286.44;1752904;79;20998;-69
2022/05/27 10:56:44;;;;;;;5.17;1.82;;;;;;;16.54;73.62;100275.13;1755649;80;21821;-70
2022/05/27 11:02:37;;;;;;;5.75;2.08;;;;;;;16.80;72.62;100276.41;1766210;81;21031;-69
2022/05/27 11:05:38;;;;;;;3.25;1.60;;;;;;;16.90;72.13;100270.04;1768906;79;21085;-69
2022/05/27 11:08:28;;;;;;;5.08;2.22;;;;;;;16.65;70.29;100270.45;1762019;79;21015;-70
2022/05/27 11:11:15;;;;;;;3.80;1.92;;;;;;;16.81;69.77;100267.30;1760011;79;21159;-69
2022/05/27 11:16:54;;;;;;;2.90;2.00;;;;;;;17.18;68.44;100254.88;1760813;79;20994;-69
2022/05/27 11:19:40;;;;;;;4.33;1.90;;;;;;;17.31;68.12;100257.51;1780614;79;20990;-69
2022/05/27 11:22:21;;;;;;;4.72;1.98;;;;;;;17.48;67.75;100239.24;1775630;79;21059;-69
2022/05/27 11:25:21;;;;;;;5.35;1.98;;;;;;;17.63;67.24;100229.48;1771662;79;21504;-69
2022/05/27 11:28:16;;;;;;;1.52;1.25;;;;;;;17.60;66.76;100226.41;1772379;80;21622;-69
2022/05/27 11:31:11;;;;;;;3.05;2.00;;;;;;;17.48;66.24;100233.84;1757376;79;21156;-70
2022/05/27 11:34:16;;;;;;;7.37;2.50;;;;;;;17.53;65.92;100236.39;1776495;79;21097;-70
2022/05/27 11:37:04;;;;;;;5.70;2.05;;;;;;;17.39;65.47;100220.31;1715884;82;20913;-70
2022/05/27 11:39:50;;;;;;;4.42;2.00;;;;;;;17.48;65.22;100219.02;1704932;82;21751;-69
2022/05/27 11:42:31;;;;;;;3.87;1.62;;;;;;;17.78;64.89;100211.62;1724149;79;38685;-70
2022/05/27 11:45:17;;;;;;;2.90;2.30;;;;;;;17.91;64.25;100216.89;1775079;79;21093;-70
2022/05/27 11:47:49;;;;;;;6.92;2.05;;;;;;;18.14;63.76;100214.41;1736077;79;22332;-69
2022/05/27 11:50:39;;;;;;;4.30;2.27;;;;;;;18.48;63.40;100220.55;1785102;79;21508;-69
2022/05/27 11:53:37;;;;;;;7.45;2.08;;;;;;;18.61;63.03;100210.69;1788409;79;21560;-69
2022/05/27 11:56:24;;;;;;;4.33;2.00;;;;;;;18.48;62.19;100196.25;1781178;79;21014;-69
2022/05/27 11:59:00;;;;;;;4.37;1.90;;;;;;;18.42;61.88;100201.73;1777809;79;21813;-69
2022/05/27 12:01:47;;;;;;;5.15;2.15;;;;;;;17.99;60.92;100204.48;1793370;79;21017;-69
2022/05/27 12:04:39;;;;;;;4.00;1.70;;;;;;;17.66;60.71;100205.32;1786412;79;21044;-70
2022/05/27 12:07:28;;;;;;;5.33;2.27;;;;;;;17.97;60.96;100199.84;1787106;79;21179;-70
2022/05/27 12:10:25;;;;;;;7.08;2.10;;;;;;;18.15;60.90;100190.42;1788056;79;21030;-70
2022/05/27 12:13:09;;;;;;;6.50;1.75;;;;;;;18.03;60.33;100192.19;1784423;79;20986;-68
2022/05/27 12:15:43;;;;;;;5.40;1.70;;;;;;;17.98;60.13;100195.27;1784495;79;21033;-67
2022/05/27 12:18:16;;;;;;;5.12;1.77;;;;;;;17.92;59.88;100174.03;1783508;79;21144;-67
2022/05/27 12:20:42;;;;;;;4.15;1.82;;;;;;;18.05;59.88;100189.28;1786119;79;21948;-68
2022/05/27 12:23:10;;;;;;;6.35;1.95;;;;;;;18.21;59.53;100165.22;1782689;79;21002;-68
2022/05/27 12:25:46;;;;;;;3.50;1.80;;;;;;;18.45;59.29;100170.22;1776640;79;21008;-68
2022/05/27 12:28:14;;;;;;;3.95;1.77;;;;;;;18.64;58.99;100160.26;1780417;79;21022;-68